createdAt,value
2019-03-30T00:02:10.827Z,9.60
2019-03-30T00:04:40.640Z,8.50
2019-03-30T00:07:10.537Z,7.27
2019-03-30T00:09:40.356Z,7.10
2019-03-30T00:12:10.224Z,7.30
2019-03-30T00:14:40.106Z,6.67
2019-03-30T00:17:09.936Z,7.33
2019-03-30T00:19:39.850Z,5.97
2019-03-30T00:22:09.687Z,7.80
2019-03-30T00:24:39.487Z,5.93
2019-03-30T00:27:09.318Z,7.40
2019-03-30T00:29:39.119Z,7.63
2019-03-30T00:32:08.932Z,7.13
2019-03-30T00:34:38.746Z,6.73
2019-03-30T00:37:08.564Z,7.93
2019-03-30T00:39:38.369Z,6.70
2019-03-30T00:42:08.212Z,7.40
2019-03-30T00:44:38.004Z,7.07
2019-03-30T00:47:07.834Z,7.77
2019-03-30T00:49:48.521Z,6.47
2019-03-30T00:52:09.284Z,8.53
2019-03-30T00:54:39.076Z,7.23
2019-03-30T00:57:08.888Z,7.13
2019-03-30T00:59:38.682Z,7.50
2019-03-30T01:02:08.613Z,6.63
2019-03-30T01:04:38.416Z,7.37
2019-03-30T01:07:08.227Z,7.33
2019-03-30T01:09:38.029Z,6.70
2019-03-30T01:12:07.841Z,7.73
2019-03-30T01:14:37.657Z,7.53
2019-03-30T01:17:07.568Z,6.07
2019-03-30T01:19:37.360Z,6.90
2019-03-30T01:22:07.182Z,7.37
2019-03-30T01:24:37.011Z,7.10
2019-03-30T01:27:06.931Z,7.30
2019-03-30T01:29:36.809Z,7.07
2019-03-30T01:32:06.634Z,8.77
2019-03-30T01:34:36.423Z,7.00
2019-03-30T01:37:06.228Z,8.23
2019-03-30T01:39:36.081Z,7.03
2019-03-30T01:42:06.044Z,7.97
2019-03-30T01:44:35.886Z,7.80
2019-03-30T01:47:05.684Z,8.03
2019-03-30T01:49:35.501Z,7.77
2019-03-30T01:52:05.394Z,7.20
2019-03-30T01:54:35.324Z,7.90
2019-03-30T01:57:05.130Z,7.87
2019-03-30T01:59:34.945Z,7.30
2019-03-30T02:02:04.764Z,6.57
2019-03-30T02:04:34.584Z,8.07
2019-03-30T02:07:04.378Z,7.40
2019-03-30T02:09:34.209Z,8.00
2019-03-30T02:12:04.291Z,8.37
2019-03-30T02:14:34.212Z,7.87
2019-03-30T02:17:04.006Z,7.33
2019-03-30T02:19:33.825Z,7.07
2019-03-30T02:22:03.725Z,8.60
2019-03-30T02:24:33.549Z,8.10
2019-03-30T02:27:03.331Z,6.53
2019-03-30T02:29:33.149Z,7.30
2019-03-30T02:32:03.255Z,7.90
2019-03-30T02:34:33.119Z,6.97
2019-03-30T02:37:02.956Z,8.40
2019-03-30T02:39:32.786Z,7.47
2019-03-30T02:42:02.844Z,8.43
2019-03-30T02:44:32.749Z,9.30
2019-03-30T02:47:02.662Z,8.40
2019-03-30T02:49:32.541Z,8.10
2019-03-30T02:52:02.405Z,7.53
2019-03-30T02:54:32.254Z,8.30
2019-03-30T02:57:02.058Z,7.90
2019-03-30T02:59:31.875Z,8.23
2019-03-30T03:02:01.692Z,8.70
2019-03-30T03:04:31.520Z,7.17
2019-03-30T03:07:01.342Z,7.87
2019-03-30T03:09:31.166Z,6.93
2019-03-30T03:12:00.957Z,8.77
2019-03-30T03:14:30.871Z,8.07
2019-03-30T03:17:00.745Z,8.00
2019-03-30T03:19:30.565Z,9.10
2019-03-30T03:22:00.363Z,8.97
2019-03-30T03:24:30.238Z,8.50
2019-03-30T03:27:01.554Z,8.57
2019-03-30T03:29:31.364Z,8.83
2019-03-30T03:32:01.190Z,9.43
2019-03-30T03:34:31.079Z,9.43
2019-03-30T03:37:00.869Z,9.03
2019-03-30T03:39:30.689Z,9.57
2019-03-30T03:42:00.513Z,9.03
2019-03-30T03:44:30.322Z,9.23
2019-03-30T03:47:00.118Z,9.80
2019-03-30T03:49:29.937Z,9.50
2019-03-30T03:52:00.637Z,8.23
2019-03-30T03:54:31.757Z,9.20
2019-03-30T03:57:03.286Z,10.13
2019-03-30T03:59:35.524Z,10.17
2019-03-30T04:02:06.076Z,9.03
2019-03-30T04:04:38.945Z,8.87
2019-03-30T04:07:09.093Z,9.40
2019-03-30T04:09:40.979Z,9.60
2019-03-30T04:12:13.195Z,10.20
2019-03-30T04:14:47.003Z,8.90
2019-03-30T04:17:16.987Z,9.67
2019-03-30T04:19:46.804Z,10.43
2019-03-30T04:22:16.639Z,9.30
2019-03-30T04:24:46.842Z,8.87
2019-03-30T04:27:16.639Z,10.37
2019-03-30T04:29:46.456Z,8.70
2019-03-30T04:32:16.264Z,9.90
2019-03-30T04:34:46.186Z,8.40
2019-03-30T04:37:16.092Z,8.47
2019-03-30T04:39:45.920Z,9.67
2019-03-30T04:42:15.748Z,8.70
2019-03-30T04:44:45.640Z,10.10
2019-03-30T04:47:15.444Z,8.77
2019-03-30T04:49:45.249Z,9.53
2019-03-30T04:52:15.042Z,9.67
2019-03-30T04:54:44.852Z,9.50
2019-03-30T04:57:14.655Z,9.47
2019-03-30T04:59:44.492Z,9.60
2019-03-30T05:02:14.318Z,9.50
2019-03-30T05:04:44.158Z,10.13
2019-03-30T05:07:14.041Z,9.07
2019-03-30T05:09:43.839Z,9.90
2019-03-30T05:12:13.638Z,10.50
2019-03-30T05:14:43.457Z,9.03
2019-03-30T05:17:13.255Z,10.67
2019-03-30T05:19:45.989Z,9.67
2019-03-30T05:22:16.708Z,9.33
2019-03-30T05:24:46.841Z,8.83
2019-03-30T05:27:16.670Z,8.40
2019-03-30T05:29:46.495Z,9.87
2019-03-30T05:32:16.301Z,8.73
2019-03-30T05:34:46.116Z,9.07
2019-03-30T05:37:15.913Z,9.07
2019-03-30T05:39:46.432Z,9.40
2019-03-30T05:42:16.235Z,9.73
2019-03-30T05:44:46.098Z,8.87
2019-03-30T05:47:15.908Z,8.40
2019-03-30T05:49:45.742Z,8.23
2019-03-30T05:52:26.319Z,9.10
2019-03-30T05:54:47.477Z,9.40
2019-03-30T05:57:17.277Z,7.90
2019-03-30T05:59:47.192Z,8.03
2019-03-30T06:02:17.013Z,8.90
2019-03-30T06:04:46.826Z,8.70
2019-03-30T06:07:16.647Z,9.53
2019-03-30T06:09:46.543Z,9.47
2019-03-30T06:12:16.339Z,10.23
2019-03-30T06:14:46.158Z,9.73
2019-03-30T06:17:16.068Z,8.87
2019-03-30T06:19:45.872Z,9.00
2019-03-30T06:22:15.723Z,9.63
2019-03-30T06:24:45.544Z,8.30
2019-03-30T06:27:15.351Z,9.30
2019-03-30T06:29:46.727Z,9.73
2019-03-30T06:32:16.589Z,10.27
2019-03-30T06:34:46.425Z,9.70
2019-03-30T06:37:16.292Z,9.97
2019-03-30T06:39:46.102Z,8.60
2019-03-30T06:42:15.983Z,10.30
2019-03-30T06:44:45.804Z,9.40
2019-03-30T06:47:15.596Z,9.13
2019-03-30T06:49:45.415Z,9.30
2019-03-30T06:52:15.326Z,9.67
2019-03-30T06:54:45.146Z,10.07
2019-03-30T06:57:14.954Z,10.37
2019-03-30T06:59:44.773Z,10.33
2019-03-30T07:02:15.203Z,11.30
2019-03-30T07:04:45.065Z,9.27
2019-03-30T07:07:15.677Z,9.47
2019-03-30T07:09:48.076Z,10.73
2019-03-30T07:12:19.977Z,10.67
2019-03-30T07:14:52.086Z,11.20
2019-03-30T07:17:22.564Z,10.83
2019-03-30T07:19:54.352Z,10.23
2019-03-30T07:22:24.162Z,10.07
2019-03-30T07:24:53.984Z,10.60
2019-03-30T07:27:23.836Z,11.20
2019-03-30T07:29:53.681Z,11.20
2019-03-30T07:32:24.041Z,11.37
2019-03-30T07:34:53.912Z,10.83
2019-03-30T07:37:23.721Z,10.70
2019-03-30T07:39:53.544Z,11.13
2019-03-30T07:42:23.348Z,10.33
2019-03-30T07:44:53.185Z,11.33
2019-03-30T07:47:23.012Z,11.60
2019-03-30T07:49:52.834Z,11.00
2019-03-30T07:52:22.652Z,10.67
2019-03-30T07:54:52.502Z,11.47
2019-03-30T07:57:22.310Z,11.33
2019-03-30T07:59:52.153Z,10.80
2019-03-30T08:02:22.083Z,11.00
2019-03-30T08:04:51.935Z,12.30
2019-03-30T08:07:21.975Z,12.10
2019-03-30T08:09:52.006Z,11.20
2019-03-30T08:12:21.836Z,11.37
2019-03-30T08:14:51.653Z,11.70
2019-03-30T08:17:21.828Z,10.60
2019-03-30T08:19:51.669Z,12.40
2019-03-30T08:22:21.508Z,12.30
2019-03-30T08:24:51.421Z,12.93
2019-03-30T08:27:21.275Z,10.70
2019-03-30T08:29:51.085Z,11.20
2019-03-30T08:32:20.910Z,12.47
2019-03-30T08:34:50.700Z,11.07
2019-03-30T08:37:20.600Z,12.63
2019-03-30T08:39:50.416Z,12.23
2019-03-30T08:42:20.352Z,11.90
2019-03-30T08:44:50.311Z,12.20
2019-03-30T08:47:20.212Z,11.80
2019-03-30T08:49:50.013Z,12.03
2019-03-30T08:52:19.838Z,10.57
2019-03-30T08:54:49.844Z,10.90
2019-03-30T08:57:19.664Z,12.10
2019-03-30T08:59:49.496Z,12.07
2019-03-30T09:02:19.452Z,11.83
2019-03-30T09:04:49.286Z,12.03
2019-03-30T09:07:19.132Z,11.87
2019-03-30T09:09:49.035Z,11.37
2019-03-30T09:12:18.865Z,11.20
2019-03-30T09:14:48.685Z,12.37
2019-03-30T09:17:18.551Z,12.40
2019-03-30T09:19:48.509Z,12.00
2019-03-30T09:22:18.320Z,12.20
2019-03-30T09:24:48.161Z,10.93
2019-03-30T09:27:17.997Z,11.00
2019-03-30T09:29:47.827Z,10.43
2019-03-30T09:32:17.659Z,11.83
2019-03-30T09:34:47.497Z,10.87
2019-03-30T09:37:17.313Z,10.97
2019-03-30T09:39:47.174Z,9.97
2019-03-30T09:42:17.071Z,9.43
2019-03-30T09:44:46.889Z,10.70
2019-03-30T09:47:16.730Z,10.57
2019-03-30T09:49:46.571Z,9.70
2019-03-30T09:52:16.392Z,8.07
2019-03-30T09:54:46.257Z,8.33
2019-03-30T09:57:16.151Z,7.50
2019-03-30T09:59:45.958Z,8.80
2019-03-30T10:02:15.811Z,8.47
2019-03-30T10:04:45.705Z,8.27
2019-03-30T10:07:15.537Z,8.33
2019-03-30T10:09:47.317Z,7.83
2019-03-30T10:12:16.906Z,8.17
2019-03-30T10:14:46.707Z,7.33
2019-03-30T10:17:16.529Z,7.67
2019-03-30T10:19:53.083Z,8.00
2019-03-30T10:22:17.896Z,7.63
2019-03-30T10:24:47.693Z,7.67
2019-03-30T10:27:17.503Z,8.33
2019-03-30T10:29:47.307Z,7.10
2019-03-30T10:32:17.157Z,7.97
2019-03-30T10:34:46.949Z,9.03
2019-03-30T10:37:16.802Z,8.60
2019-03-30T10:39:45.783Z,7.50
2019-03-30T10:42:14.736Z,6.97
2019-03-30T10:44:44.585Z,6.30
2019-03-30T10:47:14.432Z,6.77
2019-03-30T10:49:44.315Z,5.00
2019-03-30T10:52:14.427Z,6.77
2019-03-30T10:54:52.456Z,6.67
2019-03-30T10:57:15.775Z,7.20
2019-03-30T10:59:45.572Z,6.50
2019-03-30T11:02:15.416Z,7.30
2019-03-30T11:04:45.362Z,7.50
2019-03-30T11:07:15.255Z,7.50
2019-03-30T11:09:45.061Z,7.40
2019-03-30T11:12:14.889Z,8.50
2019-03-30T11:14:44.797Z,7.50
2019-03-30T11:17:14.979Z,7.47
2019-03-30T11:19:44.815Z,8.10
2019-03-30T11:22:14.672Z,9.13
2019-03-30T11:24:44.530Z,6.60
2019-03-30T11:27:14.365Z,6.27
2019-03-30T11:29:44.194Z,7.40
2019-03-30T11:32:14.029Z,6.63
2019-03-30T11:34:43.860Z,5.50
2019-03-30T11:37:13.705Z,7.43
2019-03-30T11:39:43.565Z,7.27
2019-03-30T11:42:14.289Z,8.67
2019-03-30T11:44:44.107Z,6.60
2019-03-30T11:47:14.004Z,7.67
2019-03-30T11:49:45.199Z,7.50
2019-03-30T11:52:15.027Z,7.60
2019-03-30T11:54:44.964Z,6.83
2019-03-30T11:57:14.787Z,7.27
2019-03-30T11:59:44.594Z,7.40
2019-03-30T12:02:27.334Z,7.47
2019-03-30T12:04:45.971Z,7.67
2019-03-30T12:07:15.801Z,7.47
2019-03-30T12:09:45.674Z,6.70
2019-03-30T12:12:15.509Z,6.63
2019-03-30T12:14:45.288Z,7.00
2019-03-30T12:17:15.116Z,7.60
2019-03-30T12:19:44.916Z,6.90
2019-03-30T12:22:14.806Z,7.20
2019-03-30T12:24:44.613Z,9.43
2019-03-30T12:27:14.485Z,8.10
2019-03-30T12:29:44.772Z,7.60
2019-03-30T12:32:14.707Z,6.97
2019-03-30T12:34:44.523Z,7.17
2019-03-30T12:37:14.616Z,8.80
2019-03-30T12:39:44.426Z,8.63
2019-03-30T12:42:14.315Z,7.57
2019-03-30T12:44:44.120Z,7.93
2019-03-30T12:47:13.972Z,7.53
2019-03-30T12:49:45.219Z,7.30
2019-03-30T12:52:15.399Z,7.30
2019-03-30T12:54:45.197Z,7.47
2019-03-30T12:57:15.046Z,7.97
2019-03-30T12:59:44.860Z,8.40
2019-03-30T13:02:14.712Z,7.83
2019-03-30T13:04:44.609Z,7.27
2019-03-30T13:07:14.437Z,6.57
2019-03-30T13:09:44.395Z,5.77
2019-03-30T13:12:14.242Z,6.17
2019-03-30T13:14:44.047Z,6.67
2019-03-30T13:17:13.881Z,6.90
2019-03-30T13:19:43.681Z,6.43
2019-03-30T13:22:13.510Z,6.80
2019-03-30T13:24:43.392Z,7.47
2019-03-30T13:27:13.238Z,7.60
2019-03-30T13:29:43.088Z,8.50
2019-03-30T13:32:12.949Z,7.50
2019-03-30T13:34:42.756Z,7.57
2019-03-30T13:37:17.850Z,8.97
2019-03-30T13:39:47.681Z,7.90
2019-03-30T13:42:17.612Z,7.90
2019-03-30T13:44:49.563Z,8.20
2019-03-30T13:47:19.526Z,8.03
2019-03-30T13:49:49.373Z,7.50
2019-03-30T13:52:19.196Z,6.60
2019-03-30T13:54:49.008Z,6.53
2019-03-30T13:57:18.834Z,7.40
2019-03-30T13:59:48.708Z,7.27
2019-03-30T14:02:18.563Z,6.70
2019-03-30T14:04:48.535Z,6.70
2019-03-30T14:07:18.387Z,7.47
2019-03-30T14:09:48.277Z,7.60
2019-03-30T14:12:18.168Z,7.27
2019-03-30T14:14:50.165Z,7.60
2019-03-30T14:17:20.399Z,7.20
2019-03-30T14:19:50.297Z,6.57
2019-03-30T14:22:20.206Z,5.30
2019-03-30T14:24:50.413Z,6.50
2019-03-30T14:27:20.404Z,6.60
2019-03-30T14:29:50.234Z,6.80
2019-03-30T14:32:20.162Z,7.70
2019-03-30T14:34:50.010Z,7.80
2019-03-30T14:37:19.914Z,8.00
2019-03-30T14:39:49.726Z,6.67
2019-03-30T14:42:19.581Z,7.37
2019-03-30T14:44:49.392Z,8.33
2019-03-30T14:47:19.228Z,10.63
2019-03-30T14:49:49.057Z,7.23
2019-03-30T14:52:18.975Z,8.33
2019-03-30T14:54:53.129Z,8.87
2019-03-30T14:57:20.350Z,8.80
2019-03-30T14:59:50.146Z,8.93
2019-03-30T15:02:19.994Z,9.87
2019-03-30T15:04:49.775Z,9.57
2019-03-30T15:07:19.625Z,10.80
2019-03-30T15:09:49.444Z,11.40
2019-03-30T15:12:19.330Z,13.40
2019-03-30T15:14:49.212Z,11.37
2019-03-30T15:17:19.036Z,12.33
2019-03-30T15:19:48.849Z,12.67
2019-03-30T15:22:18.687Z,11.23
2019-03-30T15:24:48.522Z,12.20
2019-03-30T15:27:18.364Z,12.40
2019-03-30T15:29:48.194Z,12.43
2019-03-30T15:32:17.209Z,11.70
2019-03-30T15:34:47.021Z,14.90
2019-03-30T15:37:16.866Z,10.77
2019-03-30T15:39:46.672Z,13.37
2019-03-30T15:42:16.488Z,11.23
2019-03-30T15:44:46.318Z,12.77
2019-03-30T15:47:16.117Z,10.37
2019-03-30T15:49:46.169Z,11.20
2019-03-30T15:52:15.993Z,9.93
2019-03-30T15:54:45.817Z,10.90
2019-03-30T15:57:15.620Z,10.47
2019-03-30T15:59:45.455Z,11.87
2019-03-30T16:02:15.296Z,11.77
2019-03-30T16:04:45.165Z,9.63
2019-03-30T16:07:15.062Z,10.90
2019-03-30T16:09:44.903Z,10.83
2019-03-30T16:12:14.729Z,10.20
2019-03-30T16:14:44.722Z,11.03
2019-03-30T16:17:15.040Z,11.60
2019-03-30T16:19:45.026Z,9.30
2019-03-30T16:22:14.850Z,10.23
2019-03-30T16:24:44.664Z,11.13
2019-03-30T16:27:27.814Z,10.83
2019-03-30T16:29:46.022Z,11.30
2019-03-30T16:32:15.849Z,12.00
2019-03-30T16:34:45.755Z,11.60
2019-03-30T16:37:15.572Z,12.47
2019-03-30T16:39:45.395Z,12.27
2019-03-30T16:42:15.201Z,13.20
2019-03-30T16:44:45.049Z,13.50
2019-03-30T16:47:14.966Z,12.70
2019-03-30T16:49:44.801Z,11.93
2019-03-30T16:52:14.643Z,13.17
2019-03-30T16:54:44.633Z,15.00
2019-03-30T16:57:14.458Z,13.23
2019-03-30T16:59:44.286Z,14.10
2019-03-30T17:02:14.196Z,14.00
2019-03-30T17:04:44.101Z,11.60
2019-03-30T17:07:13.954Z,13.03
2019-03-30T17:09:43.784Z,12.37
2019-03-30T17:12:13.590Z,12.50
2019-03-30T17:14:43.423Z,13.90
2019-03-30T17:17:13.233Z,13.23
2019-03-30T17:19:43.080Z,13.37
2019-03-30T17:22:12.888Z,13.37
2019-03-30T17:24:42.733Z,13.30
2019-03-30T17:27:12.539Z,15.70
2019-03-30T17:29:42.436Z,11.67
2019-03-30T17:32:12.264Z,13.77
2019-03-30T17:34:42.717Z,13.43
2019-03-30T17:37:14.415Z,13.00
2019-03-30T17:39:44.164Z,14.93
2019-03-30T17:42:14.005Z,12.03
2019-03-30T17:44:43.836Z,14.97
2019-03-30T17:47:13.632Z,15.40
2019-03-30T17:49:43.761Z,14.17
2019-03-30T17:52:13.843Z,16.13
2019-03-30T17:54:43.713Z,14.17
2019-03-30T17:57:17.167Z,14.50
2019-03-30T17:59:45.114Z,13.10
2019-03-30T18:02:14.957Z,13.13
2019-03-30T18:04:44.820Z,16.57
2019-03-30T18:07:14.669Z,16.10
2019-03-30T18:09:44.563Z,14.53
2019-03-30T18:12:14.517Z,15.50
2019-03-30T18:14:44.484Z,14.27
2019-03-30T18:17:14.331Z,15.10
2019-03-30T18:19:44.267Z,15.80
2019-03-30T18:22:14.145Z,17.43
2019-03-30T18:24:43.993Z,18.07
2019-03-30T18:27:13.879Z,16.37
2019-03-30T18:29:43.999Z,16.00
2019-03-30T18:32:14.270Z,16.33
2019-03-30T18:34:44.925Z,18.13
2019-03-30T18:37:14.917Z,16.40
2019-03-30T18:39:44.912Z,17.63
2019-03-30T18:42:14.712Z,17.50
2019-03-30T18:44:45.873Z,17.60
2019-03-30T18:47:15.837Z,18.23
2019-03-30T18:49:45.804Z,16.40
2019-03-30T18:52:16.466Z,19.10
2019-03-30T18:54:45.519Z,17.13
2019-03-30T18:57:15.317Z,16.97
2019-03-30T18:59:47.463Z,15.03
2019-03-30T19:02:19.200Z,16.43
2019-03-30T19:04:48.860Z,18.50
2019-03-30T19:07:18.678Z,20.90
2019-03-30T19:09:48.490Z,19.40
2019-03-30T19:12:18.294Z,18.50
2019-03-30T19:14:48.182Z,19.00
2019-03-30T19:17:18.065Z,22.77
2019-03-30T19:19:50.090Z,23.33
2019-03-30T19:22:19.460Z,18.53
2019-03-30T19:24:49.884Z,22.80
2019-03-30T19:27:19.687Z,20.33
2019-03-30T19:29:49.536Z,22.73
2019-03-30T19:32:19.382Z,26.60
2019-03-30T19:34:49.212Z,24.77
2019-03-30T19:37:19.034Z,25.53
2019-03-30T19:39:48.861Z,24.83
2019-03-30T19:42:18.655Z,27.07
2019-03-30T19:44:48.473Z,31.30
2019-03-30T19:47:18.288Z,27.73
2019-03-30T19:49:48.298Z,28.60
2019-03-30T19:52:18.154Z,27.80
2019-03-30T19:54:48.040Z,29.37
2019-03-30T19:57:17.898Z,32.00
2019-03-30T19:59:47.785Z,30.37
2019-03-30T20:02:17.733Z,30.00
2019-03-30T20:04:47.588Z,33.00
2019-03-30T20:07:17.421Z,37.03
2019-03-30T20:09:47.353Z,32.90
2019-03-30T20:12:17.246Z,32.60
2019-03-30T20:14:47.177Z,24.63
2019-03-30T20:17:16.990Z,22.83
2019-03-30T20:19:46.920Z,25.10
2019-03-30T20:22:16.753Z,24.87
2019-03-30T20:24:46.757Z,22.60
2019-03-30T20:27:16.601Z,24.40
2019-03-30T20:29:46.521Z,21.70
2019-03-30T20:32:16.385Z,21.40
2019-03-30T20:34:46.388Z,22.50
2019-03-30T20:37:16.315Z,23.93
2019-03-30T20:39:46.185Z,24.73
2019-03-30T20:42:16.150Z,23.20
2019-03-30T20:44:46.024Z,22.90
2019-03-30T20:47:15.872Z,24.80
2019-03-30T20:49:45.807Z,25.50
2019-03-30T20:52:15.638Z,29.80
2019-03-30T20:54:45.547Z,30.63
2019-03-30T20:57:15.365Z,27.27
2019-03-30T20:59:45.347Z,30.30
2019-03-30T21:02:15.393Z,32.20
2019-03-30T21:04:45.319Z,31.77
2019-03-30T21:07:15.210Z,28.33
2019-03-30T21:09:45.024Z,25.90
2019-03-30T21:12:14.928Z,26.10
2019-03-30T21:14:44.844Z,24.90
2019-03-30T21:17:14.842Z,23.50
2019-03-30T21:19:44.710Z,23.33
2019-03-30T21:22:14.536Z,22.70
2019-03-30T21:24:44.731Z,24.80
2019-03-30T21:27:14.562Z,22.90
2019-03-30T21:29:54.446Z,22.27
2019-03-30T21:32:16.031Z,23.00
2019-03-30T21:34:45.928Z,26.53
2019-03-30T21:37:15.767Z,24.57
2019-03-30T21:39:45.597Z,23.63
2019-03-30T21:42:15.453Z,23.97
2019-03-30T21:44:45.319Z,22.87
2019-03-30T21:47:15.185Z,24.00
2019-03-30T21:49:45.033Z,28.40
2019-03-30T21:52:15.001Z,27.43
2019-03-30T21:54:44.885Z,26.07
2019-03-30T21:57:14.722Z,25.27
2019-03-30T21:59:44.615Z,25.73
2019-03-30T22:02:14.439Z,24.63
2019-03-30T22:04:44.323Z,24.60
2019-03-30T22:07:14.257Z,20.57
2019-03-30T22:09:44.095Z,22.23
2019-03-30T22:12:14.040Z,24.10
2019-03-30T22:14:43.901Z,30.47
2019-03-30T22:17:13.711Z,24.97
2019-03-30T22:19:43.556Z,30.70
2019-03-30T22:22:13.390Z,26.23
2019-03-30T22:24:43.242Z,36.73
2019-03-30T22:27:13.161Z,25.13
2019-03-30T22:29:42.967Z,24.30
2019-03-30T22:32:12.825Z,22.47
2019-03-30T22:34:42.703Z,25.07
2019-03-30T22:37:12.529Z,25.20
2019-03-30T22:39:42.431Z,27.17
2019-03-30T22:42:12.340Z,24.97
2019-03-30T22:44:42.280Z,25.30
2019-03-30T22:47:12.270Z,26.10
2019-03-30T22:49:42.254Z,24.73
2019-03-30T22:52:12.098Z,24.70
2019-03-30T22:54:42.030Z,22.50
2019-03-30T22:57:12.040Z,22.10
2019-03-30T22:59:41.951Z,26.33
2019-03-30T23:02:12.004Z,27.27
2019-03-30T23:04:41.813Z,25.57
2019-03-30T23:07:11.644Z,27.30
2019-03-30T23:09:41.526Z,25.20
2019-03-30T23:12:11.357Z,23.60
2019-03-30T23:14:41.696Z,23.60
2019-03-30T23:17:11.638Z,25.60
2019-03-30T23:19:41.499Z,25.00
2019-03-30T23:22:11.366Z,24.37
2019-03-30T23:24:41.274Z,25.60
2019-03-30T23:27:11.093Z,25.13
2019-03-30T23:29:40.944Z,25.70
2019-03-30T23:32:10.750Z,28.00
2019-03-30T23:34:40.560Z,26.60
2019-03-30T23:37:10.402Z,26.77
2019-03-30T23:39:40.192Z,26.73
2019-03-30T23:42:10.034Z,26.43
2019-03-30T23:44:39.833Z,26.03
2019-03-30T23:47:09.636Z,23.00
2019-03-30T23:49:39.507Z,25.60
2019-03-30T23:52:09.305Z,25.53
2019-03-30T23:54:39.138Z,22.97
2019-03-30T23:57:08.976Z,26.70
2019-03-30T23:59:38.801Z,24.40
